Time;durP1;ratioP1;P1;durP2;ratioP2;P2;SDS_P1;SDS_P2;PMS_P1;PMS_P2;Temp;Humidity;BMP_temperature;BMP_pressure;BME280_temperature;BME280_humidity;BME280_pressure;Samples;Min_cycle;Max_cycle;Signal;HPM_P1;HPM_P2
2021/03/30 00:03:35;;;;;;;7.72;4.10;;;;;;;3.86;56.69;99231.50;1710194;83;21101;-72
2021/03/30 00:06:03;;;;;;;7.47;2.62;;;;;;;3.88;56.06;99235.30;1705697;83;21165;-72
2021/03/30 00:08:31;;;;;;;5.87;3.80;;;;;;;3.89;57.46;99228.78;1645858;86;21199;-71
2021/03/30 00:11:00;;;;;;;5.33;3.50;;;;;;;3.91;56.11;99226.16;1705653;83;21133;-71
2021/03/30 00:13:29;;;;;;;5.65;2.80;;;;;;;3.89;58.31;99226.69;1645799;86;21624;-70
2021/03/30 00:15:58;;;;;;;8.95;3.72;;;;;;;3.91;57.31;99223.14;1705650;83;21147;-70
2021/03/30 00:18:26;;;;;;;5.30;3.00;;;;;;;3.92;56.58;99223.52;1705871;83;21146;-70
2021/03/30 00:20:55;;;;;;;9.35;3.70;;;;;;;3.92;57.73;99223.52;1705654;83;21578;-70
2021/03/30 00:23:23;;;;;;;4.72;3.00;;;;;;;3.96;56.57;99227.62;1705916;83;21145;-70
2021/03/30 00:25:51;;;;;;;7.30;3.05;;;;;;;3.98;56.58;99228.37;1705697;83;21138;-70
2021/03/30 00:28:19;;;;;;;3.90;2.77;;;;;;;3.99;56.23;99229.20;1705875;83;21161;-71
2021/03/30 00:30:47;;;;;;;4.42;3.17;;;;;;;4.00;56.35;99224.01;1705542;83;21140;-67
2021/03/30 00:33:17;;;;;;;5.50;2.83;;;;;;;4.02;56.10;99218.33;1705743;83;21219;-67
2021/03/30 00:35:47;;;;;;;6.90;3.67;;;;;;;4.03;57.31;99219.16;1705590;83;21171;-66
2021/03/30 00:38:15;;;;;;;5.47;2.85;;;;;;;4.03;57.44;99218.72;1705573;83;21180;-66
2021/03/30 00:40:43;;;;;;;5.17;3.15;;;;;;;4.04;57.69;99214.41;1705658;84;21149;-66
2021/03/30 00:43:12;;;;;;;5.40;3.55;;;;;;;4.05;56.51;99213.03;1705744;83;21156;-71
2021/03/30 00:45:40;;;;;;;5.60;4.70;;;;;;;4.07;56.58;99212.53;1705670;83;21129;-70
2021/03/30 00:48:12;;;;;;;8.98;3.87;;;;;;;4.07;56.82;99208.67;1705820;83;21176;-70
2021/03/30 00:50:40;;;;;;;6.17;3.30;;;;;;;4.07;55.73;99207.84;1705084;83;21125;-70
2021/03/30 00:53:28;;;;;;;8.93;4.53;;;;;;;4.04;54.98;99207.54;1682768;83;21231;-70
2021/03/30 00:55:59;;;;;;;7.10;4.08;;;;;;;4.03;55.01;99206.31;1665700;85;21178;-70
2021/03/30 00:58:27;;;;;;;9.60;3.42;;;;;;;4.01;55.93;99206.38;1703539;83;21129;-70
2021/03/30 01:00:55;;;;;;;6.87;3.35;;;;;;;3.97;58.03;99202.76;1705694;83;21156;-70
2021/03/30 01:03:23;;;;;;;5.42;3.98;;;;;;;3.93;57.07;99202.04;1705472;83;21180;-71
2021/03/30 01:05:51;;;;;;;6.15;3.70;;;;;;;3.94;56.42;99199.86;1705585;83;21118;-70
2021/03/30 01:11:48;;;;;;;5.08;2.95;;;;;;;3.90;57.15;99200.91;1675804;85;21588;-66
2021/03/30 01:18:04;;;;;;;6.17;3.20;;;;;;;3.85;56.56;99196.90;1672579;83;21152;-67
2021/03/30 01:21:02;;;;;;;6.40;3.00;;;;;;;3.79;55.96;99197.55;1653683;87;21171;-66
2021/03/30 01:26:43;;;;;;;7.65;3.33;;;;;;;3.72;56.69;99191.48;1678246;85;20223;-67
2021/03/30 01:29:49;;;;;;;6.50;3.52;;;;;;;3.67;55.35;99190.41;1679444;84;21262;-66
2021/03/30 01:35:35;;;;;;;7.20;3.40;;;;;;;3.66;55.84;99191.30;1710185;84;21132;-66
2021/03/30 01:38:05;;;;;;;7.10;3.83;;;;;;;3.66;54.29;99189.17;1681381;85;21587;-65
2021/03/30 01:40:36;;;;;;;4.85;3.50;;;;;;;3.67;55.72;99189.56;1681497;85;21199;-66
2021/03/30 01:43:06;;;;;;;6.15;3.20;;;;;;;3.68;55.28;99188.22;1681146;85;21234;-66
2021/03/30 01:45:35;;;;;;;5.47;2.62;;;;;;;3.70;54.48;99181.27;1681361;85;21187;-66
2021/03/30 01:50:56;;;;;;;3.47;2.80;;;;;;;3.75;54.25;99179.77;1678792;85;21376;-67
2021/03/30 01:53:26;;;;;;;6.33;3.67;;;;;;;3.76;55.43;99182.73;1677435;85;21203;-65
2021/03/30 01:55:56;;;;;;;6.65;3.75;;;;;;;3.77;54.55;99169.80;1707226;84;21159;-65
2021/03/30 01:58:27;;;;;;;5.28;2.47;;;;;;;3.77;55.16;99171.08;1732374;83;21305;-66
2021/03/30 02:00:55;;;;;;;8.88;3.85;;;;;;;3.76;55.90;99167.31;1732633;83;21163;-65
2021/03/30 02:03:25;;;;;;;9.48;4.80;;;;;;;3.77;55.00;99176.22;1732550;83;21616;-65
2021/03/30 02:05:57;;;;;;;5.95;2.77;;;;;;;3.76;55.47;99168.60;1732339;83;21587;-67
2021/03/30 02:08:31;;;;;;;9.78;3.67;;;;;;;3.76;55.89;99175.02;1732487;83;21596;-65
2021/03/30 02:11:00;;;;;;;6.92;2.62;;;;;;;3.74;55.45;99168.66;1732810;83;21143;-66
2021/03/30 02:16:20;;;;;;;5.28;3.02;;;;;;;3.72;56.43;99166.62;1732496;83;21199;-65
2021/03/30 02:19:01;;;;;;;5.17;3.45;;;;;;;3.72;56.97;99174.78;1732569;83;21222;-67
2021/03/30 02:21:33;;;;;;;5.12;3.45;;;;;;;3.72;55.63;99169.64;1732495;83;21166;-66
2021/03/30 02:24:10;;;;;;;4.65;3.20;;;;;;;3.73;54.40;99175.17;1732734;83;21170;-64
2021/03/30 02:26:42;;;;;;;6.75;3.05;;;;;;;3.72;55.32;99168.36;1732593;83;21239;-66
2021/03/30 02:29:22;;;;;;;4.80;2.42;;;;;;;3.72;55.83;99169.20;1732756;83;21195;-67
2021/03/30 02:32:19;;;;;;;5.58;3.30;;;;;;;3.73;56.52;99172.16;1665435;85;21646;-66
2021/03/30 02:34:49;;;;;;;5.87;2.90;;;;;;;3.74;56.04;99167.83;1665396;85;21193;-65
2021/03/30 02:37:20;;;;;;;6.80;3.22;;;;;;;3.75;56.03;99169.50;1665445;86;21660;-65
2021/03/30 02:39:49;;;;;;;5.50;3.33;;;;;;;3.75;57.26;99164.36;1665647;86;21199;-65
2021/03/30 02:42:19;;;;;;;7.05;2.85;;;;;;;3.76;56.74;99162.18;1665495;86;21149;-65
2021/03/30 02:44:51;;;;;;;8.35;3.42;;;;;;;3.77;56.33;99166.42;1665397;86;21220;-66
2021/03/30 02:47:21;;;;;;;6.58;3.35;;;;;;;3.78;57.00;99162.92;1665489;86;21193;-65
2021/03/30 02:49:51;;;;;;;4.67;2.90;;;;;;;3.79;57.05;99162.03;1665470;86;21189;-67
2021/03/30 02:52:24;;;;;;;7.70;3.45;;;;;;;3.80;57.08;99162.42;1665518;86;21213;-65
2021/03/30 02:54:54;;;;;;;6.53;3.05;;;;;;;3.80;56.95;99157.28;1665419;86;21233;-66
2021/03/30 02:57:23;;;;;;;5.75;2.95;;;;;;;3.80;56.03;99156.00;1665666;86;21201;-66
2021/03/30 02:59:54;;;;;;;7.22;3.40;;;;;;;3.79;58.82;99151.30;1665430;86;21193;-65
2021/03/30 03:02:27;;;;;;;4.28;2.27;;;;;;;3.80;57.52;99161.97;1665571;86;21176;-67
2021/03/30 03:04:55;;;;;;;5.12;3.40;;;;;;;3.80;56.79;99159.84;1620980;87;21340;-65
2021/03/30 03:07:23;;;;;;;4.10;2.92;;;;;;;3.79;56.59;99160.30;1620972;88;21401;-65
2021/03/30 03:09:53;;;;;;;6.17;3.10;;;;;;;3.79;56.20;99155.61;1660488;86;21198;-65
2021/03/30 03:12:22;;;;;;;3.75;2.22;;;;;;;3.78;56.26;99154.77;1660429;86;21193;-65
2021/03/30 03:14:52;;;;;;;9.43;2.70;;;;;;;3.77;57.60;99154.86;1660539;86;21193;-65
2021/03/30 03:17:20;;;;;;;4.37;3.02;;;;;;;3.77;57.43;99154.86;1660330;86;21213;-65
2021/03/30 03:19:49;;;;;;;3.95;2.22;;;;;;;3.77;58.02;99160.00;1660726;86;21189;-65
2021/03/30 03:22:18;;;;;;;2.40;2.15;;;;;;;3.75;58.30;99154.92;1660137;86;21209;-66
2021/03/30 03:24:49;;;;;;;4.62;2.65;;;;;;;3.75;58.04;99157.48;1659036;86;21197;-65
2021/03/30 03:27:19;;;;;;;3.67;2.42;;;;;;;3.74;58.95;99160.95;1659037;86;21589;-66
2021/03/30 03:29:47;;;;;;;7.90;3.98;;;;;;;3.71;61.10;99166.69;1658957;86;21563;-66
2021/03/30 03:32:15;;;;;;;7.92;3.77;;;;;;;3.66;60.35;99167.34;1640663;86;21598;-69
2021/03/30 03:34:43;;;;;;;7.33;3.77;;;;;;;3.61;59.86;99168.02;1619976;88;21285;-68
2021/03/30 03:37:11;;;;;;;4.62;2.95;;;;;;;3.56;59.89;99169.52;1620061;88;21193;-72
2021/03/30 03:39:39;;;;;;;8.43;4.42;;;;;;;3.53;61.48;99168.38;1664001;86;21188;-68
2021/03/30 03:42:07;;;;;;;14.73;8.55;;;;;;;3.50;61.50;99172.34;1619960;88;21207;-71
2021/03/30 03:44:35;;;;;;;11.55;7.10;;;;;;;3.48;61.96;99179.75;1620116;88;21648;-69
2021/03/30 03:47:08;;;;;;;41.68;23.05;;;;;;;3.46;62.20;99179.00;1663937;86;21205;-67
2021/03/30 03:49:36;;;;;;;21.87;10.38;;;;;;;3.44;61.96;99177.77;1647861;86;21257;-72
2021/03/30 03:52:10;;;;;;;11.55;5.42;;;;;;;3.44;62.14;99176.93;1664056;86;21311;-71
2021/03/30 03:54:42;;;;;;;14.78;4.25;;;;;;;3.40;63.14;99177.97;1619842;88;21171;-71
2021/03/30 03:57:35;;;;;;;9.78;4.62;;;;;;;3.35;63.89;99184.14;1620042;88;21228;-72
2021/03/30 04:02:52;;;;;;;7.53;3.62;;;;;;;3.31;63.89;99178.76;1648729;86;21262;-71
2021/03/30 04:05:23;;;;;;;16.15;4.45;;;;;;;3.29;62.95;99176.73;1668417;86;21251;-71
2021/03/30 04:07:59;;;;;;;8.38;4.00;;;;;;;3.33;62.33;99174.41;1705094;84;21166;-72
2021/03/30 04:10:30;;;;;;;6.97;3.47;;;;;;;3.37;61.80;99177.67;1681126;84;21157;-74
2021/03/30 04:12:59;;;;;;;7.03;3.47;;;;;;;3.41;62.02;99175.34;1676035;85;21175;-72
2021/03/30 04:15:28;;;;;;;9.20;3.98;;;;;;;3.45;61.54;99182.02;1648636;87;21226;-72
2021/03/30 04:17:56;;;;;;;6.20;3.40;;;;;;;3.48;61.34;99178.46;1646747;86;21585;-72
2021/03/30 04:20:25;;;;;;;9.50;4.47;;;;;;;3.51;61.54;99182.17;1646809;87;21209;-72
2021/03/30 04:22:58;;;;;;;9.20;4.60;;;;;;;3.54;61.31;99176.44;1647451;86;21195;-72
2021/03/30 04:25:45;;;;;;;6.85;3.92;;;;;;;3.59;60.88;99181.38;1647248;87;21175;-72
2021/03/30 04:28:15;;;;;;;8.50;4.15;;;;;;;3.62;60.81;99187.68;1676336;85;21210;-72
2021/03/30 04:30:43;;;;;;;5.97;3.90;;;;;;;3.66;61.41;99191.30;1705130;84;21143;-72
2021/03/30 04:33:12;;;;;;;6.75;3.67;;;;;;;3.70;60.86;99186.84;1704849;84;21181;-72
2021/03/30 04:35:40;;;;;;;6.22;3.65;;;;;;;3.72;60.87;99192.77;1704753;84;21178;-71
2021/03/30 04:38:08;;;;;;;11.33;4.05;;;;;;;3.75;61.21;99191.34;1704920;84;21134;-72
2021/03/30 04:40:36;;;;;;;8.63;4.50;;;;;;;3.80;60.99;99194.09;1704979;84;21700;-73
2021/03/30 04:43:04;;;;;;;7.17;4.50;;;;;;;3.86;63.63;99195.97;1704977;83;21151;-73
2021/03/30 04:45:32;;;;;;;9.18;4.10;;;;;;;3.92;61.44;99183.69;1704938;83;21889;-73
2021/03/30 04:48:00;;;;;;;9.23;4.62;;;;;;;4.03;63.53;99189.16;1704721;84;21138;-70
2021/03/30 04:50:29;;;;;;;9.40;4.25;;;;;;;4.11;63.72;99183.20;1705040;84;21234;-68
2021/03/30 04:52:57;;;;;;;7.83;3.72;;;;;;;4.19;61.92;99181.55;1704833;84;21324;-68
2021/03/30 04:55:25;;;;;;;8.68;4.42;;;;;;;4.23;61.20;99186.48;1704705;84;21210;-68
2021/03/30 04:57:53;;;;;;;8.50;4.28;;;;;;;4.29;61.04;99190.02;1704688;84;21166;-68
2021/03/30 05:00:22;;;;;;;11.33;4.65;;;;;;;4.33;60.26;99197.59;1704715;84;21229;-69
2021/03/30 05:02:50;;;;;;;8.98;3.65;;;;;;;4.37;60.40;99197.81;1704632;84;21559;-68
2021/03/30 05:05:19;;;;;;;7.47;3.67;;;;;;;4.41;59.46;99201.45;1704755;84;21788;-68
2021/03/30 05:07:47;;;;;;;9.75;4.95;;;;;;;4.45;60.04;99206.00;1704859;83;21220;-68
2021/03/30 05:10:15;;;;;;;12.25;4.58;;;;;;;4.46;59.71;99207.22;1704918;84;21201;-68
2021/03/30 05:13:05;;;;;;;13.03;6.35;;;;;;;4.46;61.11;99211.53;1704722;84;21728;-68
2021/03/30 05:15:34;;;;;;;18.65;6.75;;;;;;;4.50;60.25;99213.05;1733498;82;21182;-67
2021/03/30 05:18:03;;;;;;;14.50;5.62;;;;;;;4.52;60.42;99215.91;1733555;82;21235;-71
2021/03/30 05:20:31;;;;;;;16.97;5.35;;;;;;;4.55;60.06;99216.23;1733596;83;21544;-72
2021/03/30 05:22:59;;;;;;;10.95;5.70;;;;;;;4.55;60.97;99213.67;1733572;82;21204;-72
2021/03/30 05:25:28;;;;;;;13.68;6.08;;;;;;;4.56;60.82;99222.58;1733685;82;21587;-72
2021/03/30 05:27:56;;;;;;;16.48;7.03;;;;;;;4.60;60.45;99215.09;1733462;82;21593;-71
2021/03/30 05:30:25;;;;;;;14.60;6.95;;;;;;;4.62;61.10;99218.89;1733241;82;21128;-72
2021/03/30 05:32:53;;;;;;;19.87;7.28;;;;;;;4.65;61.35;99217.45;1734203;82;21172;-72
2021/03/30 05:35:22;;;;;;;14.45;8.65;;;;;;;4.70;60.53;99214.20;1733613;82;21120;-69
2021/03/30 05:37:50;;;;;;;18.30;7.17;;;;;;;4.73;60.94;99213.59;1734021;82;21164;-68
2021/03/30 05:40:20;;;;;;;15.75;7.35;;;;;;;4.83;58.81;99218.26;1734051;83;21195;-71
2021/03/30 05:42:49;;;;;;;12.70;7.00;;;;;;;4.90;59.27;99219.20;1734306;82;21580;-71
2021/03/30 05:45:19;;;;;;;17.23;8.35;;;;;;;4.97;60.34;99223.56;1733682;83;21147;-72
2021/03/30 05:48:14;;;;;;;13.00;7.83;;;;;;;4.89;61.42;99217.52;1704577;84;21144;-72
2021/03/30 05:50:42;;;;;;;19.75;7.78;;;;;;;4.99;60.82;99221.73;1667296;85;21156;-68
2021/03/30 05:53:14;;;;;;;12.68;6.30;;;;;;;5.06;60.32;99217.48;1670776;86;21196;-69
2021/03/30 05:55:45;;;;;;;15.78;7.58;;;;;;;5.15;59.04;99213.16;1649190;87;21630;-68
2021/03/30 05:58:17;;;;;;;20.70;7.08;;;;;;;5.22;58.73;99217.53;1678170;84;21177;-68
2021/03/30 06:00:51;;;;;;;17.15;7.95;;;;;;;5.30;58.86;99223.58;1678386;84;21225;-68
2021/03/30 06:03:24;;;;;;;22.65;7.37;;;;;;;5.36;58.29;99226.69;1678264;85;21224;-72
2021/03/30 06:05:55;;;;;;;18.50;6.62;;;;;;;5.43;57.79;99227.19;1691019;85;21215;-72
2021/03/30 06:08:25;;;;;;;16.00;7.08;;;;;;;5.46;58.96;99234.75;1649103;86;21190;-71
2021/03/30 06:10:58;;;;;;;13.95;7.90;;;;;;;5.31;60.18;99230.41;1678314;85;21174;-72
2021/03/30 06:13:53;;;;;;;13.20;7.33;;;;;;;5.40;59.82;99224.78;1690882;85;21148;-72
2021/03/30 06:16:40;;;;;;;11.57;8.28;;;;;;;5.52;59.06;99221.57;1670111;84;21191;-72
2021/03/30 06:19:48;;;;;;;19.60;6.97;;;;;;;5.68;58.56;99232.73;1649153;87;21218;-68
2021/03/30 06:22:18;;;;;;;14.55;7.15;;;;;;;5.78;58.26;99237.77;1565458;90;21616;-68
2021/03/30 06:24:46;;;;;;;14.85;6.30;;;;;;;5.93;57.83;99232.27;1596844;90;21191;-69
2021/03/30 06:27:27;;;;;;;13.38;6.28;;;;;;;6.02;57.55;99227.91;1589913;90;21212;-71
2021/03/30 06:29:59;;;;;;;12.50;6.85;;;;;;;6.12;57.13;99226.03;1589869;90;21160;-71
2021/03/30 06:32:28;;;;;;;11.97;7.30;;;;;;;6.28;56.84;99231.17;1590006;90;21214;-68
2021/03/30 06:35:14;;;;;;;12.85;6.83;;;;;;;6.35;56.64;99226.50;1590035;90;21199;-71
2021/03/30 06:37:42;;;;;;;10.68;6.78;;;;;;;6.45;56.53;99231.53;1590121;90;21691;-71
2021/03/30 06:40:25;;;;;;;11.50;7.17;;;;;;;6.55;56.47;99230.92;1590058;90;21216;-68
2021/03/30 06:43:11;;;;;;;15.78;7.15;;;;;;;6.71;56.15;99232.17;1589818;90;21267;-68
2021/03/30 06:45:39;;;;;;;18.48;7.55;;;;;;;6.83;55.36;99240.51;1610302;87;21201;-73
2021/03/30 06:48:08;;;;;;;12.73;7.40;;;;;;;6.93;55.15;99234.34;1630293;87;21648;-72
2021/03/30 06:50:40;;;;;;;13.78;7.58;;;;;;;6.80;54.96;99235.53;1600579;88;21234;-73
2021/03/30 06:53:32;;;;;;;17.27;6.60;;;;;;;7.06;54.16;99236.13;1601451;88;21192;-72
2021/03/30 06:56:00;;;;;;;12.80;7.67;;;;;;;7.24;53.89;99242.45;1685090;85;21243;-72
2021/03/30 06:58:29;;;;;;;10.90;6.40;;;;;;;7.35;52.97;99236.17;1685123;84;21184;-72
2021/03/30 07:00:57;;;;;;;14.28;5.95;;;;;;;7.28;53.24;99234.84;1685008;84;21858;-72
2021/03/30 07:03:24;;;;;;;16.67;6.15;;;;;;;7.50;52.71;99230.91;1685119;84;21184;-72
2021/03/30 07:05:53;;;;;;;14.25;5.87;;;;;;;7.74;52.21;99228.59;1684930;84;21187;-73
2021/03/30 07:08:23;;;;;;;10.45;5.15;;;;;;;7.84;50.92;99229.67;1685009;84;21224;-72
2021/03/30 07:10:54;;;;;;;8.20;5.92;;;;;;;7.92;50.49;99233.08;1685122;84;21569;-72
2021/03/30 07:13:24;;;;;;;11.48;5.85;;;;;;;7.94;49.99;99233.34;1684829;84;21191;-72
2021/03/30 07:15:57;;;;;;;5.53;3.50;;;;;;;8.20;50.12;99232.19;1684895;84;21247;-72
2021/03/30 07:18:42;;;;;;;7.62;3.83;;;;;;;8.39;49.67;99232.25;1684955;84;21183;-68
2021/03/30 07:21:18;;;;;;;5.83;3.33;;;;;;;8.56;49.57;99235.02;1685054;84;21200;-68
2021/03/30 07:23:59;;;;;;;5.87;3.62;;;;;;;8.70;49.36;99228.50;1682306;84;21156;-68
2021/03/30 07:26:47;;;;;;;11.43;5.35;;;;;;;8.87;48.91;99228.20;1682273;84;21194;-68
2021/03/30 07:29:18;;;;;;;25.97;9.05;;;;;;;9.03;47.57;99228.86;1685006;84;21208;-68
2021/03/30 07:32:14;;;;;;;27.67;9.33;;;;;;;9.20;47.71;99228.20;1661535;84;21668;-69
2021/03/30 07:35:03;;;;;;;6.25;3.83;;;;;;;9.34;46.47;99228.92;1685172;84;21160;-68
2021/03/30 07:37:57;;;;;;;3.90;2.92;;;;;;;9.52;46.42;99232.04;1684980;84;21187;-69
2021/03/30 07:40:26;;;;;;;6.67;3.77;;;;;;;9.66;46.52;99228.48;1684791;84;21190;-68
2021/03/30 07:42:57;;;;;;;6.10;3.30;;;;;;;9.80;45.99;99229.20;1684932;84;21246;-69
2021/03/30 07:45:35;;;;;;;6.97;3.95;;;;;;;9.91;45.84;99225.84;1684925;84;21172;-68
2021/03/30 07:48:04;;;;;;;7.58;3.50;;;;;;;9.99;44.60;99223.08;1685055;85;21204;-69
2021/03/30 07:51:02;;;;;;;5.95;3.67;;;;;;;10.18;45.09;99224.39;1684883;84;21176;-72
2021/03/30 07:53:56;;;;;;;8.05;4.55;;;;;;;10.29;43.03;99225.75;1685079;85;21156;-72
2021/03/30 07:56:30;;;;;;;9.80;4.40;;;;;;;10.29;42.11;99223.98;1684680;85;21648;-72
2021/03/30 07:58:59;;;;;;;10.78;3.30;;;;;;;10.31;40.69;99217.39;1684775;85;21204;-72
2021/03/30 08:01:31;;;;;;;8.30;3.95;;;;;;;10.53;41.14;99220.55;1684386;85;21156;-70
2021/03/30 08:04:01;;;;;;;5.55;3.90;;;;;;;10.47;41.11;99220.05;1684344;85;21184;-68
2021/03/30 08:06:36;;;;;;;7.60;4.08;;;;;;;10.82;42.13;99213.56;1683230;85;21590;-68
2021/03/30 08:09:11;;;;;;;7.83;5.28;;;;;;;11.07;39.88;99204.77;1684232;85;21195;-69
2021/03/30 08:11:44;;;;;;;11.97;4.87;;;;;;;11.12;39.75;99207.86;1684284;85;21259;-69
2021/03/30 08:14:33;;;;;;;9.20;5.03;;;;;;;11.22;40.64;99203.61;1684582;85;21295;-68
2021/03/30 08:17:04;;;;;;;9.25;3.70;;;;;;;11.27;39.73;99192.86;1684307;85;21223;-68
2021/03/30 08:19:32;;;;;;;5.20;2.75;;;;;;;11.37;39.55;99188.59;1684448;85;21254;-73
2021/03/30 08:22:06;;;;;;;5.72;2.55;;;;;;;11.76;40.37;99185.54;1684555;85;21203;-73
2021/03/30 08:24:52;;;;;;;8.48;2.75;;;;;;;12.08;39.72;99182.17;1684444;85;21188;-73
2021/03/30 08:27:37;;;;;;;6.58;3.02;;;;;;;12.33;39.35;99177.95;1684707;85;21204;-73
2021/03/30 08:30:30;;;;;;;5.12;3.02;;;;;;;12.43;37.71;99178.02;1657161;86;21320;-73
2021/03/30 08:33:00;;;;;;;5.80;3.40;;;;;;;12.45;36.79;99175.63;1685225;85;21226;-72
2021/03/30 08:35:36;;;;;;;7.08;3.35;;;;;;;12.41;37.16;99179.94;1685060;85;21192;-73
2021/03/30 08:38:07;;;;;;;7.40;3.77;;;;;;;12.70;38.49;99176.59;1684971;85;21646;-72
2021/03/30 08:40:40;;;;;;;7.55;3.85;;;;;;;12.94;36.40;99171.13;1684789;85;21590;-69
2021/03/30 08:43:35;;;;;;;11.45;4.65;;;;;;;12.87;36.60;99176.52;1684794;85;21174;-69
2021/03/30 08:46:09;;;;;;;5.78;3.80;;;;;;;12.74;36.67;99174.09;1630191;87;21239;-69
2021/03/30 08:48:42;;;;;;;5.60;3.60;;;;;;;12.79;36.86;99169.80;1630389;87;21260;-71
2021/03/30 08:51:15;;;;;;;11.05;4.15;;;;;;;12.95;36.41;99168.05;1629561;87;21216;-68
2021/03/30 08:53:44;;;;;;;7.95;4.42;;;;;;;13.36;36.50;99176.31;1630327;88;21216;-69
2021/03/30 08:56:13;;;;;;;8.50;4.42;;;;;;;13.59;37.35;99176.00;1630328;87;21236;-69
2021/03/30 08:59:11;;;;;;;8.08;4.10;;;;;;;13.49;35.42;99169.93;1630415;88;21203;-69
2021/03/30 09:01:39;;;;;;;6.35;3.75;;;;;;;13.74;35.18;99173.36;1659226;86;21168;-68
2021/03/30 09:04:10;;;;;;;10.60;4.47;;;;;;;14.21;35.95;99169.19;1632419;87;21760;-69
2021/03/30 09:06:40;;;;;;;12.70;6.12;;;;;;;14.52;35.02;99166.00;1659051;86;21204;-70
2021/03/30 09:09:22;;;;;;;11.53;5.25;;;;;;;14.51;34.59;99160.92;1631100;88;21724;-69
2021/03/30 09:11:52;;;;;;;6.75;3.98;;;;;;;14.76;34.44;99160.81;1659281;86;21681;-69
2021/03/30 09:14:22;;;;;;;13.43;5.65;;;;;;;14.59;34.42;99159.25;1630917;88;21172;-72
2021/03/30 09:16:51;;;;;;;10.70;5.37;;;;;;;13.44;35.94;99169.96;1659205;86;21248;-72
2021/03/30 09:19:29;;;;;;;8.05;4.25;;;;;;;13.36;35.68;99165.40;1630946;87;21223;-73
2021/03/30 09:22:02;;;;;;;5.70;3.35;;;;;;;13.27;36.26;99155.27;1659111;86;21188;-73
2021/03/30 09:27:03;;;;;;;6.72;4.17;;;;;;;14.27;34.70;99158.69;1657759;86;21597;-73
2021/03/30 09:29:38;;;;;;;8.38;3.55;;;;;;;14.48;34.29;99147.63;1630262;88;21217;-73
2021/03/30 09:32:09;;;;;;;8.50;3.58;;;;;;;14.75;33.82;99153.95;1659321;86;21212;-73
2021/03/30 09:34:39;;;;;;;4.28;2.95;;;;;;;15.26;33.50;99148.29;1625285;88;21712;-73
2021/03/30 09:37:08;;;;;;;7.20;3.75;;;;;;;15.54;34.07;99146.91;1659347;86;21183;-72
2021/03/30 09:39:37;;;;;;;8.10;3.40;;;;;;;15.70;33.80;99146.27;1659113;86;21601;-72
2021/03/30 09:42:07;;;;;;;5.03;3.52;;;;;;;15.63;31.89;99142.12;1659183;86;21725;-68
2021/03/30 09:44:43;;;;;;;8.53;4.22;;;;;;;15.79;31.74;99135.41;1659300;86;21184;-68
2021/03/30 09:47:15;;;;;;;7.53;4.75;;;;;;;16.08;31.19;99138.66;1659499;86;21187;-69
2021/03/30 09:49:46;;;;;;;4.10;3.10;;;;;;;15.80;31.15;99138.34;1639041;86;21171;-71
2021/03/30 09:52:15;;;;;;;5.35;2.62;;;;;;;15.81;30.81;99129.52;1659439;86;21616;-69
2021/03/30 09:54:43;;;;;;;5.75;3.00;;;;;;;16.20;31.91;99132.22;1659345;86;21160;-71
2021/03/30 09:57:19;;;;;;;7.97;3.37;;;;;;;16.46;31.54;99127.86;1659234;86;21199;-66
2021/03/30 09:59:49;;;;;;;4.58;3.25;;;;;;;16.53;30.83;99122.37;1660448;86;21586;-66
2021/03/30 10:02:21;;;;;;;7.80;3.52;;;;;;;16.45;29.91;99130.16;1666720;86;21207;-67
2021/03/30 10:04:54;;;;;;;3.70;2.72;;;;;;;16.80;29.53;99116.20;1666738;86;21636;-67
2021/03/30 10:07:24;;;;;;;7.12;3.12;;;;;;;16.99;28.84;99124.34;1666873;86;21188;-71
2021/03/30 10:10:03;;;;;;;6.58;4.05;;;;;;;17.11;28.54;99117.03;1666969;86;21196;-66
2021/03/30 10:13:23;;;;;;;7.67;4.08;;;;;;;17.15;28.64;99121.81;1666776;86;21260;-67
2021/03/30 10:16:07;;;;;;;7.17;3.65;;;;;;;18.31;27.05;99115.28;1808253;77;38530;-71
2021/03/30 10:18:36;;;;;;;4.85;2.85;;;;;;;18.52;26.41;99105.59;1828175;78;21388;-70
2021/03/30 10:23:53;;;;;;;6.62;3.05;;;;;;;18.07;27.28;99111.80;1779870;79;22780;-70
2021/03/30 10:26:26;;;;;;;5.72;2.60;;;;;;;17.84;27.10;99113.73;1753329;82;21172;-71
2021/03/30 10:29:02;;;;;;;4.03;2.65;;;;;;;18.45;26.35;99115.94;1753426;82;21672;-71
2021/03/30 10:31:44;;;;;;;3.87;2.47;;;;;;;19.25;25.12;99110.25;1753603;82;21172;-72
2021/03/30 10:34:26;;;;;;;7.12;2.67;;;;;;;19.70;24.69;99107.44;1753110;82;21140;-72
2021/03/30 10:36:57;;;;;;;5.15;2.17;;;;;;;19.93;24.17;99106.98;1745802;82;21576;-72
2021/03/30 10:39:55;;;;;;;4.50;2.67;;;;;;;19.60;24.43;99107.67;1753338;81;21140;-71
2021/03/30 10:42:29;;;;;;;3.98;2.27;;;;;;;20.10;23.96;99108.52;1739848;82;21719;-72
2021/03/30 10:45:05;;;;;;;5.17;2.20;;;;;;;21.17;23.25;99101.66;1740910;82;21212;-72
2021/03/30 10:47:35;;;;;;;6.17;2.60;;;;;;;20.83;22.56;99100.02;1741105;82;21306;-71
2021/03/30 10:50:12;;;;;;;4.87;2.75;;;;;;;20.59;22.84;99098.92;1740982;82;21377;-71
2021/03/30 10:52:42;;;;;;;4.65;2.30;;;;;;;21.24;23.43;99094.63;1741024;82;21208;-66
2021/03/30 10:55:20;;;;;;;4.47;2.37;;;;;;;22.17;22.97;99096.06;1740838;81;21371;-68
2021/03/30 10:57:49;;;;;;;2.52;1.90;;;;;;;22.87;21.11;99083.83;1739813;81;21169;-72
2021/03/30 11:00:17;;;;;;;4.47;2.15;;;;;;;23.77;22.16;99079.19;1740556;82;21338;-73
2021/03/30 11:02:46;;;;;;;7.12;2.42;;;;;;;23.77;21.13;99081.02;1740881;81;21185;-68
2021/03/30 11:05:16;;;;;;;4.35;2.27;;;;;;;24.02;19.10;99068.31;1740902;81;21330;-72
2021/03/30 11:07:44;;;;;;;3.98;2.65;;;;;;;23.63;19.34;99060.27;1740883;81;21311;-71
2021/03/30 11:10:13;;;;;;;5.42;2.55;;;;;;;23.92;19.37;99061.27;1740773;82;21585;-72
2021/03/30 11:12:41;;;;;;;2.05;1.85;;;;;;;24.23;18.94;99052.77;1740697;81;21133;-71
2021/03/30 11:15:11;;;;;;;4.00;2.00;;;;;;;25.23;19.05;99056.41;1740801;81;21723;-72
2021/03/30 11:17:39;;;;;;;3.83;2.20;;;;;;;25.68;17.69;99050.61;1740724;81;21589;-72
2021/03/30 11:20:12;;;;;;;2.92;2.47;;;;;;;25.70;17.20;99049.89;1740837;81;21311;-68
2021/03/30 11:22:46;;;;;;;3.47;2.42;;;;;;;25.87;16.94;99043.56;1740813;81;21156;-68
2021/03/30 11:25:14;;;;;;;9.48;5.60;;;;;;;24.62;18.16;99041.31;1740657;82;21164;-67
2021/03/30 11:27:43;;;;;;;6.22;4.42;;;;;;;25.44;17.70;99045.50;1740689;81;21302;-66
2021/03/30 11:30:16;;;;;;;2.85;2.15;;;;;;;25.79;17.25;99040.64;1740711;82;21129;-69
2021/03/30 11:35:29;;;;;;;2.70;1.92;;;;;;;25.74;17.99;99031.14;1740510;81;21601;-69
2021/03/30 11:38:08;;;;;;;2.35;1.67;;;;;;;25.17;17.98;99032.02;1740166;81;21542;-68
2021/03/30 11:40:31;;;;;;;2.62;1.98;;;;;;;26.42;17.87;99031.27;1738112;82;21576;-72
2021/03/30 11:42:59;;;;;;;11.35;7.25;;;;;;;26.98;17.05;99025.84;1716742;82;21610;-72
2021/03/30 11:45:27;;;;;;;4.70;2.08;;;;;;;26.86;16.73;99022.27;1716771;83;21186;-71
2021/03/30 11:47:55;;;;;;;3.77;2.12;;;;;;;26.32;17.30;99019.80;1717010;82;21173;-68
2021/03/30 11:50:24;;;;;;;2.60;2.02;;;;;;;27.19;16.58;99020.06;1716825;83;21166;-68
2021/03/30 11:52:52;;;;;;;3.62;1.87;;;;;;;28.22;15.90;99018.02;1716686;83;21217;-68
2021/03/30 11:55:21;;;;;;;3.25;1.65;;;;;;;29.13;14.92;99016.60;1716592;83;21164;-69
2021/03/30 11:57:49;;;;;;;4.83;1.80;;;;;;;29.07;14.59;99015.67;1716691;83;21613;-71
2021/03/30 12:00:19;;;;;;;4.25;2.42;;;;;;;28.64;14.92;99017.39;1716818;83;21736;-71
2021/03/30 12:02:50;;;;;;;6.55;2.33;;;;;;;26.18;17.37;99000.13;1715298;83;21161;-71
2021/03/30 12:05:20;;;;;;;3.90;2.15;;;;;;;26.18;17.37;99000.13;1716801;83;21657;-71
2021/03/30 12:07:48;;;;;;;2.98;1.77;;;;;;;26.84;16.52;99005.19;1716764;83;21137;-73
2021/03/30 12:10:19;;;;;;;2.92;1.80;;;;;;;28.11;15.68;98999.31;1716435;83;21766;-73
2021/03/30 12:12:47;;;;;;;2.60;1.62;;;;;;;28.59;14.99;98988.42;1716846;83;21282;-68
2021/03/30 12:15:17;;;;;;;3.40;1.85;;;;;;;28.59;14.99;98988.42;1716619;83;21170;-72
2021/03/30 12:17:46;;;;;;;4.05;1.45;;;;;;;29.40;15.46;98992.81;1716662;83;21182;-72
2021/03/30 12:20:15;;;;;;;2.67;1.70;;;;;;;29.68;15.61;98982.91;1716702;83;21201;-73
2021/03/30 12:22:44;;;;;;;3.90;2.60;;;;;;;29.46;14.45;98982.48;1721363;82;21572;-73
2021/03/30 12:25:13;;;;;;;6.95;2.15;;;;;;;26.43;16.66;98975.13;1729349;82;21223;-71
2021/03/30 12:27:41;;;;;;;3.02;1.92;;;;;;;25.42;17.70;98973.59;1729333;82;21159;-72
2021/03/30 12:30:11;;;;;;;2.47;1.92;;;;;;;25.96;17.41;98972.55;1729446;82;21131;-70
2021/03/30 12:32:39;;;;;;;4.55;1.55;;;;;;;26.26;17.46;98974.59;1729448;82;22640;-69
2021/03/30 12:35:09;;;;;;;34.58;22.75;;;;;;;26.48;17.31;98979.80;1729227;81;21313;-67